createdAt,value
2019-03-25T00:00:26.238Z,47.75
2019-03-25T00:01:26.220Z,47.77
2019-03-25T00:02:26.212Z,47.77
2019-03-25T00:03:26.237Z,47.77
2019-03-25T00:04:26.192Z,47.77
2019-03-25T00:05:26.176Z,47.77
2019-03-25T00:06:26.170Z,47.77
2019-03-25T00:07:26.157Z,47.77
2019-03-25T00:08:26.171Z,47.77
2019-03-25T00:09:26.139Z,47.77
2019-03-25T00:10:26.158Z,47.77
2019-03-25T00:11:26.119Z,47.77
2019-03-25T00:12:26.107Z,47.77
2019-03-25T00:13:26.102Z,47.88
2019-03-25T00:14:26.113Z,47.77
2019-03-25T00:15:26.069Z,47.88
2019-03-25T00:16:26.063Z,47.88
2019-03-25T00:17:26.054Z,47.88
2019-03-25T00:18:26.034Z,47.77
2019-03-25T00:19:26.054Z,47.77
2019-03-25T00:20:26.011Z,47.77
2019-03-25T00:21:26.002Z,47.88
2019-03-25T00:22:26.028Z,47.88
2019-03-25T00:23:25.980Z,47.88
2019-03-25T00:24:25.975Z,47.88
2019-03-25T00:25:25.957Z,47.88
2019-03-25T00:26:25.959Z,47.88
2019-03-25T00:27:25.968Z,47.88
2019-03-25T00:28:25.930Z,47.88
2019-03-25T00:29:25.916Z,47.88
2019-03-25T00:30:25.912Z,47.88
2019-03-25T00:31:25.893Z,47.88
2019-03-25T00:32:25.915Z,47.88
2019-03-25T00:33:25.908Z,47.88
2019-03-25T00:34:25.866Z,47.88
2019-03-25T00:35:25.847Z,47.88
2019-03-25T00:36:25.846Z,47.88
2019-03-25T00:37:25.832Z,47.88
2019-03-25T00:38:25.849Z,47.88
2019-03-25T00:39:25.809Z,47.88
2019-03-25T00:40:25.792Z,47.88
2019-03-25T00:41:25.786Z,47.88
2019-03-25T00:42:25.776Z,47.88
2019-03-25T00:43:25.804Z,47.88
2019-03-25T00:44:25.752Z,47.88
2019-03-25T00:45:25.744Z,47.88
2019-03-25T00:46:25.733Z,47.88
2019-03-25T00:47:25.716Z,47.88
2019-03-25T00:48:25.750Z,47.88
2019-03-25T00:49:25.699Z,47.88
2019-03-25T00:50:25.686Z,47.88
2019-03-25T00:51:25.677Z,47.88
2019-03-25T00:52:25.664Z,47.88
2019-03-25T00:53:25.692Z,47.88
2019-03-25T00:54:25.640Z,47.88
2019-03-25T00:55:25.627Z,47.97
2019-03-25T00:56:25.620Z,47.88
2019-03-25T00:57:25.618Z,47.88
2019-03-25T00:58:25.633Z,47.97
2019-03-25T00:59:25.594Z,47.97
2019-03-25T01:00:25.586Z,47.97
2019-03-25T01:01:25.574Z,47.97
2019-03-25T01:02:25.558Z,47.97
2019-03-25T01:03:25.571Z,47.97
2019-03-25T01:04:25.618Z,47.97
2019-03-25T01:05:25.516Z,47.97
2019-03-25T01:06:25.508Z,47.97
2019-03-25T01:07:25.500Z,47.88
2019-03-25T01:08:25.489Z,47.97
2019-03-25T01:09:25.526Z,47.97
2019-03-25T01:10:25.495Z,47.88
2019-03-25T01:11:25.458Z,47.97
2019-03-25T01:12:25.441Z,47.97
2019-03-25T01:13:25.438Z,47.97
2019-03-25T01:14:25.425Z,47.97
2019-03-25T01:15:25.450Z,47.97
2019-03-25T01:16:25.402Z,47.97
2019-03-25T01:17:25.387Z,47.97
2019-03-25T01:18:25.374Z,47.97
2019-03-25T01:19:25.362Z,47.88
2019-03-25T01:20:25.463Z,47.97
2019-03-25T01:21:25.341Z,47.97
2019-03-25T01:22:25.337Z,47.88
2019-03-25T01:23:25.322Z,47.97
2019-03-25T01:24:25.315Z,47.88
2019-03-25T01:25:25.339Z,47.88
2019-03-25T01:26:25.292Z,47.88
2019-03-25T01:27:25.292Z,47.88
2019-03-25T01:28:25.270Z,47.88
2019-03-25T01:29:25.253Z,47.88
2019-03-25T01:30:25.285Z,47.88
2019-03-25T01:31:25.244Z,47.88
2019-03-25T01:32:25.251Z,47.88
2019-03-25T01:33:25.245Z,47.88
2019-03-25T01:34:25.203Z,47.88
2019-03-25T01:35:25.191Z,47.88
2019-03-25T01:36:25.205Z,47.88
2019-03-25T01:37:25.173Z,47.88
2019-03-25T01:38:25.156Z,47.88
2019-03-25T01:39:25.153Z,47.88
2019-03-25T01:40:25.142Z,47.97
2019-03-25T01:41:25.168Z,47.97
2019-03-25T01:42:25.125Z,47.88
2019-03-25T01:43:25.112Z,47.88
2019-03-25T01:44:25.108Z,47.88
2019-03-25T01:45:25.093Z,47.88
2019-03-25T01:46:25.101Z,47.88
2019-03-25T01:47:25.064Z,47.88
2019-03-25T01:48:25.054Z,47.88
2019-03-25T01:49:25.047Z,47.88
2019-03-25T01:50:25.064Z,47.88
2019-03-25T01:51:25.016Z,47.88
2019-03-25T01:52:25.007Z,47.88
2019-03-25T01:53:24.991Z,47.88
2019-03-25T01:54:24.980Z,47.88
2019-03-25T01:55:25.029Z,47.88
2019-03-25T01:56:24.962Z,47.88
2019-03-25T01:57:24.949Z,47.88
2019-03-25T01:58:24.971Z,47.88
2019-03-25T01:59:24.930Z,47.88
2019-03-25T02:00:24.920Z,47.88
2019-03-25T02:01:24.941Z,47.88
2019-03-25T02:02:24.902Z,47.88
2019-03-25T02:03:25.064Z,47.88
2019-03-25T02:04:24.876Z,47.88
2019-03-25T02:05:24.865Z,47.97
2019-03-25T02:06:24.894Z,47.97
2019-03-25T02:07:24.847Z,47.97
2019-03-25T02:08:24.826Z,47.88
2019-03-25T02:09:24.817Z,47.88
2019-03-25T02:10:24.810Z,47.88
2019-03-25T02:11:24.825Z,47.88
2019-03-25T02:12:24.791Z,47.88
2019-03-25T02:13:24.775Z,47.88
2019-03-25T02:14:24.765Z,47.88
2019-03-25T02:15:24.780Z,47.88
2019-03-25T02:16:24.740Z,47.88
2019-03-25T02:17:24.733Z,47.88
2019-03-25T02:18:24.739Z,47.88
2019-03-25T02:19:24.705Z,47.88
2019-03-25T02:20:26.611Z,47.88
2019-03-25T02:21:24.684Z,47.88
2019-03-25T02:22:24.734Z,47.88
2019-03-25T02:23:24.661Z,47.88
2019-03-25T02:24:24.654Z,47.88
2019-03-25T02:25:25.872Z,47.88
2019-03-25T02:26:24.634Z,47.88
2019-03-25T02:27:24.626Z,47.97
2019-03-25T02:28:24.616Z,47.88
2019-03-25T02:29:24.604Z,47.88
2019-03-25T02:30:24.684Z,47.97
2019-03-25T02:31:24.577Z,47.97
2019-03-25T02:32:24.593Z,47.88
2019-03-25T02:33:24.552Z,47.97
2019-03-25T02:34:24.546Z,47.97
2019-03-25T02:35:24.562Z,47.97
2019-03-25T02:36:24.526Z,47.97
2019-03-25T02:37:24.552Z,47.97
2019-03-25T02:38:24.500Z,47.97
2019-03-25T02:39:24.491Z,47.97
2019-03-25T02:40:24.500Z,47.97
2019-03-25T02:41:24.475Z,47.97
2019-03-25T02:42:24.454Z,47.97
2019-03-25T02:43:24.483Z,47.97
2019-03-25T02:44:24.437Z,47.97
2019-03-25T02:45:24.425Z,47.97
2019-03-25T02:46:24.411Z,47.97
2019-03-25T02:47:24.457Z,47.97
2019-03-25T02:48:24.395Z,47.97
2019-03-25T02:49:24.379Z,47.97
2019-03-25T02:50:24.377Z,47.97
2019-03-25T02:51:24.366Z,47.97
2019-03-25T02:52:24.386Z,47.97
2019-03-25T02:53:24.331Z,47.97
2019-03-25T02:54:24.347Z,47.97
2019-03-25T02:55:24.310Z,47.97
2019-03-25T02:56:24.305Z,47.97
2019-03-25T02:57:24.336Z,47.97
2019-03-25T02:58:24.287Z,47.97
2019-03-25T02:59:24.266Z,47.97
2019-03-25T03:00:24.256Z,47.97
2019-03-25T03:01:24.249Z,47.97
2019-03-25T03:02:24.283Z,48.00
2019-03-25T03:03:24.270Z,47.97
2019-03-25T03:04:24.221Z,47.97
2019-03-25T03:05:24.209Z,47.97
2019-03-25T03:06:24.198Z,47.97
2019-03-25T03:07:24.185Z,47.97
2019-03-25T03:08:24.198Z,47.97
2019-03-25T03:09:24.183Z,47.97
2019-03-25T03:10:24.162Z,47.97
2019-03-25T03:11:24.135Z,47.97
2019-03-25T03:12:24.130Z,47.97
2019-03-25T03:13:24.111Z,47.97
2019-03-25T03:14:24.157Z,47.97
2019-03-25T03:15:24.098Z,47.97
2019-03-25T03:16:24.081Z,47.97
2019-03-25T03:17:24.068Z,47.97
2019-03-25T03:18:24.065Z,47.97
2019-03-25T03:19:24.073Z,47.97
2019-03-25T03:20:24.034Z,47.97
2019-03-25T03:21:24.025Z,48.00
2019-03-25T03:22:24.024Z,47.97
2019-03-25T03:23:24.038Z,47.97
2019-03-25T03:24:23.992Z,47.97
2019-03-25T03:25:23.985Z,47.97
2019-03-25T03:26:23.970Z,47.97
2019-03-25T03:27:23.987Z,48.00
2019-03-25T03:28:23.947Z,47.97
2019-03-25T03:29:23.942Z,47.97
2019-03-25T03:30:23.954Z,47.97
2019-03-25T03:31:23.943Z,47.97
2019-03-25T03:32:23.928Z,47.97
2019-03-25T03:33:23.898Z,47.97
2019-03-25T03:34:23.898Z,48.00
2019-03-25T03:35:23.910Z,47.97
2019-03-25T03:36:23.888Z,47.97
2019-03-25T03:37:23.883Z,47.97
2019-03-25T03:38:23.848Z,48.00
2019-03-25T03:39:23.833Z,47.97
2019-03-25T03:40:23.823Z,47.97
2019-03-25T03:41:23.842Z,47.97
2019-03-25T03:42:23.802Z,47.97
2019-03-25T03:43:23.783Z,48.00
2019-03-25T03:44:23.778Z,48.00
2019-03-25T03:45:23.761Z,48.00
2019-03-25T03:46:23.785Z,47.97
2019-03-25T03:47:23.743Z,47.97
2019-03-25T03:48:23.732Z,48.00
2019-03-25T03:49:23.725Z,48.00
2019-03-25T03:50:23.731Z,48.10
2019-03-25T03:51:23.739Z,48.08
2019-03-25T03:52:23.690Z,48.00
2019-03-25T03:53:23.729Z,48.08
2019-03-25T03:54:23.672Z,47.97
2019-03-25T03:55:23.658Z,48.10
2019-03-25T03:56:23.666Z,48.00
2019-03-25T03:57:23.628Z,48.00
2019-03-25T03:58:23.622Z,48.00
2019-03-25T03:59:23.609Z,48.00
2019-03-25T04:00:23.624Z,48.00
2019-03-25T04:01:23.632Z,48.00
2019-03-25T04:02:23.602Z,48.00
2019-03-25T04:03:23.566Z,48.00
2019-03-25T04:04:23.560Z,48.00
2019-03-25T04:05:23.550Z,48.00
2019-03-25T04:06:23.565Z,48.00
2019-03-25T04:07:23.557Z,48.10
2019-03-25T04:08:23.521Z,48.10
2019-03-25T04:09:23.501Z,48.10
2019-03-25T04:10:23.486Z,48.00
2019-03-25T04:11:23.509Z,48.00
2019-03-25T04:12:23.499Z,48.00
2019-03-25T04:13:23.466Z,48.00
2019-03-25T04:14:23.446Z,48.00
2019-03-25T04:15:23.436Z,48.00
2019-03-25T04:16:23.461Z,48.00
2019-03-25T04:17:23.416Z,48.00
2019-03-25T04:18:23.410Z,48.00
2019-03-25T04:19:23.391Z,48.00
2019-03-25T04:20:23.380Z,48.00
2019-03-25T04:21:23.396Z,48.00
2019-03-25T04:22:23.389Z,48.00
2019-03-25T04:23:23.367Z,48.00
2019-03-25T04:24:23.338Z,48.00
2019-03-25T04:25:23.337Z,48.00
2019-03-25T04:26:28.793Z,48.00
2019-03-25T04:27:24.351Z,48.00
2019-03-25T04:28:23.286Z,48.00
2019-03-25T04:29:23.300Z,48.00
2019-03-25T04:30:23.270Z,48.00
2019-03-25T04:31:23.253Z,48.10
2019-03-25T04:32:23.247Z,48.10
2019-03-25T04:33:23.258Z,48.00
2019-03-25T04:34:23.229Z,48.10
2019-03-25T04:35:23.215Z,48.10
2019-03-25T04:36:23.214Z,48.10
2019-03-25T04:37:23.206Z,48.10
2019-03-25T04:38:23.212Z,48.10
2019-03-25T04:39:23.183Z,48.10
2019-03-25T04:40:23.158Z,48.10
2019-03-25T04:41:23.149Z,48.10
2019-03-25T04:42:23.138Z,48.10
2019-03-25T04:43:23.158Z,48.10
2019-03-25T04:44:23.112Z,48.10
2019-03-25T04:45:23.100Z,48.10
2019-03-25T04:46:23.108Z,48.10
2019-03-25T04:47:23.077Z,48.10
2019-03-25T04:48:23.102Z,48.10
2019-03-25T04:49:23.085Z,48.10
2019-03-25T04:50:23.043Z,48.10
2019-03-25T04:51:23.034Z,48.10
2019-03-25T04:52:23.024Z,48.10
2019-03-25T04:53:23.014Z,48.10
2019-03-25T04:54:23.033Z,48.10
2019-03-25T04:55:23.022Z,48.10
2019-03-25T04:56:22.979Z,48.10
2019-03-25T04:57:22.964Z,48.10
2019-03-25T04:58:22.957Z,48.10
2019-03-25T04:59:22.947Z,48.10
2019-03-25T05:00:22.978Z,48.10
2019-03-25T05:01:22.927Z,48.10
2019-03-25T05:02:22.911Z,48.10
2019-03-25T05:03:22.905Z,48.10
2019-03-25T05:04:22.894Z,48.10
2019-03-25T05:05:22.909Z,48.10
2019-03-25T05:06:22.917Z,48.10
2019-03-25T05:07:22.861Z,48.10
2019-03-25T05:08:22.843Z,48.10
2019-03-25T05:09:22.856Z,48.10
2019-03-25T05:10:22.825Z,48.10
2019-03-25T05:11:30.642Z,48.10
2019-03-25T05:12:23.799Z,48.10
2019-03-25T05:13:22.790Z,48.10
2019-03-25T05:14:22.777Z,48.10
2019-03-25T05:15:22.772Z,48.10
2019-03-25T05:16:22.797Z,48.10
2019-03-25T05:17:22.745Z,48.20
2019-03-25T05:18:22.732Z,48.20
2019-03-25T05:19:22.776Z,48.20
2019-03-25T05:20:22.713Z,48.18
2019-03-25T05:21:22.744Z,48.18
2019-03-25T05:22:22.694Z,48.18
2019-03-25T05:23:22.675Z,48.18
2019-03-25T05:24:22.668Z,48.18
2019-03-25T05:25:22.658Z,48.18
2019-03-25T05:26:22.671Z,48.18
2019-03-25T05:27:22.634Z,48.18
2019-03-25T05:28:22.628Z,48.18
2019-03-25T05:29:22.617Z,48.18
2019-03-25T05:30:23.066Z,48.18
2019-03-25T05:31:22.591Z,48.08
2019-03-25T05:32:22.626Z,48.08
2019-03-25T05:33:22.596Z,48.08
2019-03-25T05:34:22.559Z,48.08
2019-03-25T05:35:22.571Z,48.08
2019-03-25T05:36:22.536Z,48.08
2019-03-25T05:37:22.531Z,47.97
2019-03-25T05:38:22.523Z,47.97
2019-03-25T05:39:22.505Z,47.97
2019-03-25T05:40:22.515Z,47.88
2019-03-25T05:41:22.483Z,47.88
2019-03-25T05:42:22.476Z,47.88
2019-03-25T05:43:22.464Z,47.88
2019-03-25T05:44:22.484Z,47.85
2019-03-25T05:45:22.436Z,47.85
2019-03-25T05:46:22.428Z,47.75
2019-03-25T05:47:22.413Z,47.75
2019-03-25T05:48:22.430Z,47.75
2019-03-25T05:49:22.391Z,47.75
2019-03-25T05:50:22.389Z,47.75
2019-03-25T05:51:22.372Z,47.75
2019-03-25T05:52:22.365Z,47.75
2019-03-25T05:53:22.391Z,47.65
2019-03-25T05:54:22.339Z,47.65
2019-03-25T05:55:22.333Z,47.65
2019-03-25T05:56:22.316Z,47.65
2019-03-25T05:57:22.306Z,47.65
2019-03-25T05:58:22.325Z,47.65
2019-03-25T05:59:22.285Z,47.65
2019-03-25T06:00:22.277Z,47.65
2019-03-25T06:01:22.262Z,47.65
2019-03-25T06:02:22.282Z,47.65
2019-03-25T06:03:22.238Z,47.65
2019-03-25T06:04:22.259Z,47.65
2019-03-25T06:05:22.220Z,47.65
2019-03-25T06:06:22.211Z,47.65
2019-03-25T06:07:22.194Z,47.65
2019-03-25T06:08:22.217Z,47.65
2019-03-25T06:09:22.201Z,47.65
2019-03-25T06:10:22.163Z,47.65
2019-03-25T06:11:22.157Z,47.65
2019-03-25T06:12:22.145Z,47.65
2019-03-25T06:13:22.127Z,47.65
2019-03-25T06:14:22.152Z,47.65
2019-03-25T06:15:22.166Z,47.65
2019-03-25T06:16:22.097Z,47.65
2019-03-25T06:17:22.084Z,47.65
2019-03-25T06:18:22.079Z,47.65
2019-03-25T06:19:22.060Z,47.65
2019-03-25T06:20:22.092Z,47.65
2019-03-25T06:21:22.041Z,47.65
2019-03-25T06:22:22.031Z,47.65
2019-03-25T06:23:22.017Z,47.65
2019-03-25T06:24:22.009Z,47.65
2019-03-25T06:25:22.036Z,47.65
2019-03-25T06:26:21.993Z,47.65
2019-03-25T06:27:21.977Z,47.65
2019-03-25T06:28:21.995Z,47.65
2019-03-25T06:29:21.952Z,47.65
2019-03-25T06:30:21.942Z,47.65
2019-03-25T06:31:21.931Z,47.65
2019-03-25T06:32:21.922Z,47.75
2019-03-25T06:33:21.999Z,47.75
2019-03-25T06:34:21.895Z,47.75
2019-03-25T06:35:21.891Z,47.65
2019-03-25T06:36:21.880Z,47.75
2019-03-25T06:37:21.866Z,47.75
2019-03-25T06:38:21.917Z,47.65
2019-03-25T06:39:21.847Z,47.75
2019-03-25T06:40:21.831Z,47.65
2019-03-25T06:41:21.846Z,47.65
2019-03-25T06:42:21.808Z,47.65
2019-03-25T06:43:21.832Z,47.65
2019-03-25T06:44:21.793Z,47.75
2019-03-25T06:45:21.777Z,47.65
2019-03-25T06:46:22.356Z,47.75
2019-03-25T06:47:21.786Z,47.75
2019-03-25T06:48:21.747Z,47.75
2019-03-25T06:49:21.757Z,47.65
2019-03-25T06:50:21.817Z,47.75
2019-03-25T06:51:21.734Z,47.75
2019-03-25T06:52:21.697Z,47.75
2019-03-25T06:53:21.689Z,47.75
2019-03-25T06:54:21.675Z,47.75
2019-03-25T06:55:21.699Z,47.75
2019-03-25T06:56:21.661Z,47.75
2019-03-25T06:57:25.799Z,47.75
2019-03-25T06:58:21.637Z,47.75
2019-03-25T06:59:21.623Z,47.75
2019-03-25T07:00:21.614Z,47.75
2019-03-25T07:01:21.652Z,47.75
2019-03-25T07:02:21.590Z,47.75
2019-03-25T07:03:21.575Z,47.75
2019-03-25T07:04:21.573Z,47.75
2019-03-25T07:05:21.558Z,47.75
2019-03-25T07:06:21.579Z,47.75
2019-03-25T07:07:21.539Z,47.75
2019-03-25T07:08:21.527Z,47.75
2019-03-25T07:09:21.514Z,47.75
2019-03-25T07:10:21.503Z,47.75
2019-03-25T07:11:21.515Z,47.75
2019-03-25T07:12:21.486Z,47.75
2019-03-25T07:13:21.465Z,47.75
2019-03-25T07:14:21.476Z,47.75
2019-03-25T07:15:21.449Z,47.75
2019-03-25T07:16:21.469Z,47.75
2019-03-25T07:17:21.427Z,47.75
2019-03-25T07:18:21.419Z,47.75
2019-03-25T07:19:21.412Z,47.75
2019-03-25T07:20:21.392Z,47.75
2019-03-25T07:21:21.414Z,47.75
2019-03-25T07:22:21.402Z,47.75
2019-03-25T07:23:21.362Z,47.75
2019-03-25T07:24:21.352Z,47.75
2019-03-25T07:25:21.338Z,47.75
2019-03-25T07:26:21.331Z,47.65
2019-03-25T07:27:21.349Z,47.75
2019-03-25T07:28:21.304Z,47.75
2019-03-25T07:29:21.299Z,47.65
2019-03-25T07:30:21.281Z,47.65
2019-03-25T07:31:21.302Z,47.75
2019-03-25T07:32:21.263Z,47.65
2019-03-25T07:33:21.250Z,47.65
2019-03-25T07:34:21.241Z,47.65
2019-03-25T07:35:22.464Z,47.65
2019-03-25T07:36:21.302Z,47.65
2019-03-25T07:37:23.582Z,47.65
2019-03-25T07:38:21.222Z,47.65
2019-03-25T07:39:21.190Z,47.65
2019-03-25T07:40:21.174Z,47.65
2019-03-25T07:41:21.163Z,47.65
2019-03-25T07:42:21.158Z,47.65
2019-03-25T07:43:21.177Z,47.65
2019-03-25T07:44:21.167Z,47.65
2019-03-25T07:45:21.124Z,47.65
2019-03-25T07:46:21.109Z,47.65
2019-03-25T07:47:21.101Z,47.65
2019-03-25T07:48:21.087Z,47.65
2019-03-25T07:49:21.106Z,47.65
2019-03-25T07:50:21.071Z,47.65
2019-03-25T07:51:21.050Z,47.65
2019-03-25T07:52:21.042Z,47.65
2019-03-25T07:53:21.056Z,47.65
2019-03-25T07:54:21.019Z,47.65
2019-03-25T07:55:21.011Z,47.65
2019-03-25T07:56:21.031Z,47.65
2019-03-25T07:57:20.992Z,47.65
2019-03-25T07:58:21.006Z,47.65
2019-03-25T07:59:20.970Z,47.65
2019-03-25T08:00:20.976Z,47.65
2019-03-25T08:01:20.988Z,47.65
2019-03-25T08:02:20.947Z,47.65
2019-03-25T08:03:20.917Z,47.65
2019-03-25T08:04:20.927Z,47.65
2019-03-25T08:05:20.948Z,47.65
2019-03-25T08:06:20.893Z,47.65
2019-03-25T08:07:20.905Z,47.65
2019-03-25T08:08:20.889Z,47.65
2019-03-25T08:09:20.873Z,47.65
2019-03-25T08:10:20.925Z,47.65
2019-03-25T08:11:20.832Z,47.65
2019-03-25T08:12:20.889Z,47.65
2019-03-25T08:13:20.978Z,47.65
2019-03-25T08:14:20.832Z,47.65
2019-03-25T08:15:20.812Z,47.65
2019-03-25T08:16:20.777Z,47.65
2019-03-25T08:17:20.810Z,47.65
2019-03-25T08:18:20.789Z,47.65
2019-03-25T08:19:20.754Z,47.65
2019-03-25T08:20:20.735Z,47.65
2019-03-25T08:21:20.723Z,47.65
2019-03-25T08:22:20.729Z,47.55
2019-03-25T08:23:20.732Z,47.55
2019-03-25T08:24:20.690Z,47.65
2019-03-25T08:25:20.689Z,47.55
2019-03-25T08:26:20.669Z,47.55
2019-03-25T08:27:20.661Z,47.55
2019-03-25T08:28:20.676Z,47.55
2019-03-25T08:29:20.703Z,47.55
2019-03-25T08:30:20.624Z,47.55
2019-03-25T08:31:20.615Z,47.55
2019-03-25T08:32:20.604Z,47.55
2019-03-25T08:33:20.633Z,47.55
2019-03-25T08:34:20.578Z,47.55
2019-03-25T08:35:20.573Z,47.55
2019-03-25T08:36:20.560Z,47.55
2019-03-25T08:37:20.551Z,47.55
2019-03-25T08:38:20.565Z,47.65
2019-03-25T08:39:20.524Z,47.55
2019-03-25T08:40:20.516Z,47.55
2019-03-25T08:41:20.511Z,47.55
2019-03-25T08:42:20.492Z,47.65
2019-03-25T08:43:20.543Z,47.65
2019-03-25T08:44:20.513Z,47.65
2019-03-25T08:45:20.468Z,47.65
2019-03-25T08:46:20.459Z,47.65
2019-03-25T08:47:20.451Z,47.65
2019-03-25T08:48:20.428Z,47.65
2019-03-25T08:49:20.446Z,47.65
2019-03-25T08:50:20.403Z,47.65
2019-03-25T08:51:20.421Z,47.65
2019-03-25T08:52:20.384Z,47.65
2019-03-25T08:53:20.374Z,47.65
2019-03-25T08:54:20.363Z,47.65
2019-03-25T08:55:20.346Z,47.55
2019-03-25T08:56:20.373Z,47.55
2019-03-25T08:57:20.330Z,47.55
2019-03-25T08:58:20.346Z,47.55
2019-03-25T08:59:20.311Z,47.55
2019-03-25T09:00:20.295Z,47.55
2019-03-25T09:01:20.295Z,47.55
2019-03-25T09:02:20.271Z,47.55
2019-03-25T09:03:20.292Z,47.55
2019-03-25T09:04:20.246Z,47.55
2019-03-25T09:05:20.237Z,47.55
2019-03-25T09:06:20.226Z,47.55
2019-03-25T09:07:20.215Z,47.55
2019-03-25T09:08:20.243Z,47.55
2019-03-25T09:09:20.215Z,47.45
2019-03-25T09:10:20.185Z,47.45
2019-03-25T09:11:20.177Z,47.55
2019-03-25T09:12:20.161Z,47.45
2019-03-25T09:13:20.188Z,47.45
2019-03-25T09:14:20.171Z,47.45
2019-03-25T09:15:20.131Z,47.45
2019-03-25T09:16:20.119Z,47.45
2019-03-25T09:17:20.112Z,47.45
2019-03-25T09:18:20.137Z,47.45
2019-03-25T09:19:20.112Z,47.45
2019-03-25T09:20:20.075Z,47.45
2019-03-25T09:21:20.061Z,47.45
2019-03-25T09:22:20.053Z,47.45
2019-03-25T09:23:20.071Z,47.45
2019-03-25T09:24:20.063Z,47.45
2019-03-25T09:25:20.020Z,47.45
2019-03-25T09:26:20.018Z,47.45
2019-03-25T09:27:20.000Z,47.45
2019-03-25T09:28:24.557Z,47.45
2019-03-25T09:29:19.980Z,47.45
2019-03-25T09:30:19.969Z,47.45
2019-03-25T09:31:19.989Z,47.45
2019-03-25T09:32:19.956Z,47.45
2019-03-25T09:33:19.942Z,47.45
2019-03-25T09:34:19.957Z,47.45
2019-03-25T09:35:19.923Z,47.45
2019-03-25T09:36:19.906Z,47.45
2019-03-25T09:37:19.893Z,47.45
2019-03-25T09:38:19.879Z,47.35
2019-03-25T09:39:19.896Z,47.45
2019-03-25T09:40:19.860Z,47.35
2019-03-25T09:41:19.880Z,47.45
2019-03-25T09:42:19.843Z,47.35
2019-03-25T09:43:19.830Z,47.45
2019-03-25T09:44:19.821Z,47.35
2019-03-25T09:45:19.803Z,47.35
2019-03-25T09:46:19.864Z,47.35
2019-03-25T09:47:19.786Z,47.35
2019-03-25T09:48:19.773Z,47.35
2019-03-25T09:49:19.767Z,47.35
2019-03-25T09:50:19.793Z,47.35
2019-03-25T09:51:19.749Z,47.35
2019-03-25T09:52:19.773Z,47.35
2019-03-25T09:53:19.720Z,47.35
2019-03-25T09:54:19.709Z,47.45
2019-03-25T09:55:19.697Z,47.35
2019-03-25T09:56:19.720Z,47.35
2019-03-25T09:57:19.710Z,47.35
2019-03-25T09:58:19.669Z,47.45
2019-03-25T09:59:19.659Z,47.45
2019-03-25T10:00:19.644Z,47.45
2019-03-25T10:01:19.675Z,47.45
2019-03-25T10:02:19.621Z,47.45
2019-03-25T10:03:19.623Z,47.45
2019-03-25T10:04:20.193Z,47.45
2019-03-25T10:05:19.597Z,47.45
2019-03-25T10:06:19.621Z,47.35
2019-03-25T10:07:19.575Z,47.45
2019-03-25T10:08:19.561Z,47.35
2019-03-25T10:09:19.546Z,47.35
2019-03-25T10:10:19.534Z,47.35
2019-03-25T10:11:19.567Z,47.35
2019-03-25T10:12:19.514Z,47.35
2019-03-25T10:13:19.507Z,47.35
2019-03-25T10:14:19.495Z,47.35
2019-03-25T10:15:19.503Z,47.35
2019-03-25T10:16:19.526Z,47.35
2019-03-25T10:17:19.465Z,47.35
2019-03-25T10:18:19.459Z,47.35
2019-03-25T10:19:19.443Z,47.35
2019-03-25T10:20:19.432Z,47.35
2019-03-25T10:21:19.454Z,47.35
2019-03-25T10:22:19.412Z,47.35
2019-03-25T10:23:19.402Z,47.35
2019-03-25T10:24:19.422Z,47.35
2019-03-25T10:25:19.376Z,47.35
2019-03-25T10:26:19.418Z,47.35
2019-03-25T10:27:19.352Z,47.35
2019-03-25T10:28:19.362Z,47.35
2019-03-25T10:29:19.334Z,47.25
2019-03-25T10:30:19.328Z,47.35
2019-03-25T10:31:19.340Z,47.35
2019-03-25T10:32:19.297Z,47.35
2019-03-25T10:33:19.296Z,47.35
2019-03-25T10:34:19.306Z,47.35
2019-03-25T10:35:19.294Z,47.35
2019-03-25T10:36:19.262Z,47.35
2019-03-25T10:37:19.247Z,47.35
2019-03-25T10:38:20.023Z,47.35
2019-03-25T10:39:19.253Z,47.25
2019-03-25T10:40:19.216Z,47.35
2019-03-25T10:41:19.201Z,47.35
2019-03-25T10:42:19.190Z,47.35
2019-03-25T10:43:19.179Z,47.35
2019-03-25T10:44:19.201Z,47.25
2019-03-25T10:45:19.159Z,47.25
2019-03-25T10:46:19.150Z,47.25
2019-03-25T10:47:19.146Z,47.25
2019-03-25T10:48:19.175Z,47.25
2019-03-25T10:49:19.112Z,47.35
2019-03-25T10:50:19.106Z,47.35
2019-03-25T10:51:19.100Z,47.25
2019-03-25T10:52:19.084Z,47.35
2019-03-25T10:53:19.107Z,47.25
2019-03-25T10:54:19.124Z,47.25
2019-03-25T10:55:19.054Z,47.25
2019-03-25T10:56:19.040Z,47.25
2019-03-25T10:57:19.027Z,47.25
2019-03-25T10:58:19.042Z,47.25
2019-03-25T10:59:19.006Z,47.25
2019-03-25T11:00:18.998Z,47.25
2019-03-25T11:01:19.023Z,47.25
2019-03-25T11:02:19.000Z,47.25
2019-03-25T11:03:18.969Z,47.25
2019-03-25T11:04:18.949Z,47.25
2019-03-25T11:05:18.942Z,47.35
2019-03-25T11:06:18.933Z,47.35
2019-03-25T11:07:19.042Z,47.35
2019-03-25T11:08:18.905Z,47.25
2019-03-25T11:09:18.900Z,47.25
2019-03-25T11:10:18.884Z,47.35
2019-03-25T11:11:18.942Z,47.35
2019-03-25T11:12:18.871Z,47.35
2019-03-25T11:13:18.855Z,47.35
2019-03-25T11:14:18.846Z,47.25
2019-03-25T11:15:18.835Z,47.25
2019-03-25T11:16:18.859Z,47.25
2019-03-25T11:17:18.812Z,47.25
2019-03-25T11:18:18.801Z,47.25
2019-03-25T11:19:18.791Z,47.25
2019-03-25T11:20:18.781Z,47.25
2019-03-25T11:21:18.797Z,47.25
2019-03-25T11:22:18.756Z,47.25
2019-03-25T11:23:18.777Z,47.25
2019-03-25T11:24:18.738Z,47.25
2019-03-25T11:25:18.730Z,47.25
2019-03-25T11:26:18.710Z,47.25
2019-03-25T11:27:18.741Z,47.25
2019-03-25T11:28:18.691Z,47.25
2019-03-25T11:29:18.680Z,47.35
2019-03-25T11:30:18.669Z,47.25
2019-03-25T11:31:18.656Z,47.25
2019-03-25T11:32:18.689Z,47.25
2019-03-25T11:33:18.642Z,47.25
2019-03-25T11:34:18.655Z,47.25
2019-03-25T11:35:18.619Z,47.35
2019-03-25T11:36:18.621Z,47.35
2019-03-25T11:37:18.621Z,47.25
2019-03-25T11:38:18.583Z,47.25
2019-03-25T11:39:18.572Z,47.35
2019-03-25T11:40:18.600Z,47.35
2019-03-25T11:41:18.550Z,47.25
2019-03-25T11:42:18.542Z,47.35
2019-03-25T11:43:18.532Z,47.35
2019-03-25T11:44:18.518Z,47.35
2019-03-25T11:45:18.537Z,47.35
2019-03-25T11:46:18.494Z,47.35
2019-03-25T11:47:18.509Z,47.35
2019-03-25T11:48:18.501Z,47.35
2019-03-25T11:49:18.466Z,47.35
2019-03-25T11:50:18.448Z,47.35
2019-03-25T11:51:18.471Z,47.35
2019-03-25T11:52:18.427Z,47.35
2019-03-25T11:53:18.415Z,47.35
2019-03-25T11:54:18.436Z,47.35
2019-03-25T11:55:18.396Z,47.35
2019-03-25T11:56:18.390Z,47.35
2019-03-25T11:57:18.396Z,47.35
2019-03-25T11:58:18.361Z,47.35
2019-03-25T11:59:19.055Z,47.35
2019-03-25T12:00:18.348Z,47.35
2019-03-25T12:01:18.334Z,47.35
2019-03-25T12:02:18.318Z,47.35
2019-03-25T12:03:18.335Z,47.35
2019-03-25T12:04:18.300Z,47.35
2019-03-25T12:05:18.289Z,47.35
2019-03-25T12:06:18.279Z,47.35
2019-03-25T12:07:18.333Z,47.35
2019-03-25T12:08:18.258Z,47.35
2019-03-25T12:09:18.274Z,47.25
2019-03-25T12:10:18.254Z,47.35
2019-03-25T12:11:18.223Z,47.35
2019-03-25T12:12:18.214Z,47.35
2019-03-25T12:13:18.202Z,47.35
2019-03-25T12:14:18.221Z,47.35
2019-03-25T12:15:18.203Z,47.35
2019-03-25T12:16:18.167Z,47.35
2019-03-25T12:17:18.160Z,47.35
2019-03-25T12:18:18.150Z,47.35
2019-03-25T12:19:18.170Z,47.35
2019-03-25T12:20:18.147Z,47.35
2019-03-25T12:21:18.115Z,47.35
2019-03-25T12:22:18.103Z,47.35
2019-03-25T12:23:26.004Z,47.35
2019-03-25T12:24:19.123Z,47.35
2019-03-25T12:25:18.072Z,47.35
2019-03-25T12:26:18.059Z,47.25
2019-03-25T12:27:18.121Z,47.25
2019-03-25T12:28:20.493Z,47.25
2019-03-25T12:29:18.020Z,47.25
2019-03-25T12:30:18.100Z,47.25
2019-03-25T12:31:18.033Z,47.25
2019-03-25T12:32:17.992Z,47.25
2019-03-25T12:33:17.996Z,47.25
2019-03-25T12:34:18.009Z,47.25
2019-03-25T12:35:17.989Z,47.25
2019-03-25T12:36:17.987Z,47.25
2019-03-25T12:37:17.938Z,47.25
2019-03-25T12:38:17.931Z,47.25
2019-03-25T12:39:17.914Z,47.25
2019-03-25T12:40:17.905Z,47.25
2019-03-25T12:41:17.937Z,47.25
2019-03-25T12:42:17.881Z,47.25
2019-03-25T12:43:17.893Z,47.25
2019-03-25T12:44:17.863Z,47.25
2019-03-25T12:45:17.846Z,47.25
2019-03-25T12:46:17.881Z,47.25
2019-03-25T12:47:17.835Z,47.25
2019-03-25T12:48:17.816Z,47.25
2019-03-25T12:49:17.807Z,47.25
2019-03-25T12:50:17.792Z,47.25
2019-03-25T12:51:17.825Z,47.25
2019-03-25T12:52:17.775Z,47.25